createdAt,value
2023-05-24T00:01:58.892Z,20.91
2023-05-24T00:04:00.867Z,20.89
2023-05-24T00:06:02.694Z,20.89
2023-05-24T00:08:04.022Z,20.94
2023-05-24T00:10:05.675Z,20.94
2023-05-24T00:12:07.006Z,20.93
2023-05-24T00:14:08.387Z,20.94
2023-05-24T00:16:09.748Z,20.93
2023-05-24T00:18:11.094Z,20.91
2023-05-24T00:20:12.632Z,20.92
2023-05-24T00:22:14.129Z,20.93
2023-05-24T00:24:17.075Z,20.91
2023-05-24T00:26:18.472Z,20.90
2023-05-24T00:28:19.836Z,20.88
2023-05-24T00:30:21.213Z,20.89
2023-05-24T00:32:22.553Z,20.88
2023-05-24T00:34:23.904Z,20.87
2023-05-24T00:36:25.408Z,20.87
2023-05-24T00:38:26.964Z,20.86
2023-05-24T00:40:28.313Z,20.86
2023-05-24T00:42:29.695Z,20.86
2023-05-24T00:44:31.193Z,20.85
2023-05-24T00:46:32.602Z,20.84
2023-05-24T00:48:34.018Z,20.84
2023-05-24T00:50:35.544Z,20.86
2023-05-24T00:52:36.878Z,20.83
2023-05-24T00:54:40.668Z,20.83
2023-05-24T00:56:42.170Z,20.84
2023-05-24T00:58:43.578Z,20.84
2023-05-24T01:00:44.925Z,20.85
2023-05-24T01:02:48.367Z,20.85
2023-05-24T01:04:49.855Z,20.88
2023-05-24T01:06:51.191Z,20.88
2023-05-24T01:08:52.513Z,20.88
2023-05-24T01:10:53.919Z,20.88
2023-05-24T01:12:55.400Z,20.88
2023-05-24T01:14:56.716Z,20.88
2023-05-24T01:16:58.075Z,20.88
2023-05-24T01:18:59.456Z,20.91
2023-05-24T01:21:02.589Z,20.91
2023-05-24T01:23:03.986Z,20.92
2023-05-24T01:25:05.386Z,20.89
2023-05-24T01:27:07.372Z,20.89
2023-05-24T01:29:08.781Z,20.88
2023-05-24T01:31:10.160Z,20.87
2023-05-24T01:33:11.530Z,20.87
2023-05-24T01:35:12.857Z,20.86
2023-05-24T01:37:14.226Z,20.86
2023-05-24T01:39:15.749Z,20.85
2023-05-24T01:41:17.067Z,20.84
2023-05-24T01:43:18.507Z,20.85
2023-05-24T01:45:19.968Z,20.85
2023-05-24T01:47:21.454Z,20.87
2023-05-24T01:49:22.844Z,20.88
2023-05-24T01:51:24.185Z,20.88
2023-05-24T01:53:26.372Z,20.88
2023-05-24T01:55:27.920Z,20.88
2023-05-24T01:57:29.293Z,20.85
2023-05-24T01:59:30.902Z,20.85
2023-05-24T02:01:32.340Z,20.86
2023-05-24T02:03:33.747Z,20.85
2023-05-24T02:05:35.181Z,20.85
2023-05-24T02:07:36.564Z,20.83
2023-05-24T02:09:37.924Z,20.83
2023-05-24T02:11:39.265Z,20.84
2023-05-24T02:13:40.633Z,20.86
2023-05-24T02:15:42.028Z,20.85
2023-05-24T02:17:43.533Z,20.84
2023-05-24T02:19:44.927Z,20.84
2023-05-24T02:21:46.269Z,20.85
2023-05-24T02:23:47.832Z,20.84
2023-05-24T02:25:49.279Z,20.82
2023-05-24T02:27:50.832Z,20.83
2023-05-24T02:29:52.915Z,20.82
2023-05-24T02:31:56.751Z,20.82
2023-05-24T02:33:58.120Z,20.81
2023-05-24T02:35:59.523Z,20.85
2023-05-24T02:38:02.182Z,20.85
2023-05-24T02:40:04.135Z,20.92
2023-05-24T02:42:06.012Z,20.95
2023-05-24T02:44:07.455Z,20.93
2023-05-24T02:46:08.795Z,20.93
2023-05-24T02:48:10.196Z,20.94
2023-05-24T02:50:11.521Z,20.96
2023-05-24T02:52:13.784Z,20.94
2023-05-24T02:54:17.727Z,20.95
2023-05-24T02:56:19.213Z,20.92
2023-05-24T02:58:20.576Z,20.88
2023-05-24T03:00:21.954Z,20.84
2023-05-24T03:02:23.372Z,20.82
2023-05-24T03:04:24.788Z,20.79
2023-05-24T03:06:26.158Z,20.81
2023-05-24T03:08:27.480Z,20.84
2023-05-24T03:10:28.812Z,20.82
2023-05-24T03:12:30.493Z,20.82
2023-05-24T03:14:31.811Z,20.81
2023-05-24T03:16:33.207Z,20.81
2023-05-24T03:18:34.588Z,20.79
2023-05-24T03:20:36.203Z,20.78
2023-05-24T03:22:37.610Z,20.79
2023-05-24T03:24:38.975Z,20.80
2023-05-24T03:26:40.299Z,20.79
2023-05-24T03:28:42.005Z,20.77
2023-05-24T03:30:43.736Z,20.78
2023-05-24T03:32:45.464Z,20.79
2023-05-24T03:34:46.910Z,20.79
2023-05-24T03:36:48.264Z,20.77
2023-05-24T03:38:49.692Z,20.77
2023-05-24T03:40:51.064Z,20.75
2023-05-24T03:42:52.380Z,20.74
2023-05-24T03:44:53.780Z,20.71
2023-05-24T03:46:55.119Z,20.69
2023-05-24T03:48:56.486Z,20.67
2023-05-24T03:50:57.821Z,20.67
2023-05-24T03:52:59.167Z,20.66
2023-05-24T03:55:00.722Z,20.65
2023-05-24T03:57:02.676Z,20.65
2023-05-24T03:59:04.222Z,20.65
2023-05-24T04:01:05.577Z,20.64
2023-05-24T04:03:07.022Z,20.64
2023-05-24T04:05:12.230Z,20.64
2023-05-24T04:07:13.877Z,20.71
2023-05-24T04:09:15.653Z,20.75
2023-05-24T04:11:17.354Z,20.76
2023-05-24T04:13:18.753Z,20.77
2023-05-24T04:15:20.127Z,20.76
2023-05-24T04:17:24.732Z,20.79
2023-05-24T04:19:26.318Z,20.80
2023-05-24T04:21:30.347Z,20.46
2023-05-24T04:23:31.729Z,20.79
2023-05-24T04:25:33.684Z,20.84
2023-05-24T04:27:36.315Z,20.77
2023-05-24T04:29:37.815Z,20.72
2023-05-24T04:31:39.986Z,20.67
2023-05-24T04:33:41.644Z,20.63
2023-05-24T04:35:44.349Z,20.61
2023-05-24T04:37:46.719Z,20.63
2023-05-24T04:39:48.198Z,20.64
2023-05-24T04:41:51.794Z,20.61
2023-05-24T04:43:53.327Z,20.61
2023-05-24T04:45:57.485Z,20.61
2023-05-24T04:47:58.897Z,20.59
2023-05-24T04:50:00.345Z,20.58
2023-05-24T04:52:01.738Z,20.58
2023-05-24T04:54:08.669Z,20.60
2023-05-24T04:56:10.158Z,20.60
2023-05-24T04:58:11.548Z,20.61
2023-05-24T05:00:12.921Z,20.61
2023-05-24T05:02:14.272Z,20.61
2023-05-24T05:04:15.879Z,20.60
2023-05-24T05:06:17.291Z,20.62
2023-05-24T05:08:18.623Z,20.62
2023-05-24T05:10:21.183Z,20.61
2023-05-24T05:12:24.687Z,20.61
2023-05-24T05:14:26.007Z,20.65
2023-05-24T05:16:27.424Z,20.63
2023-05-24T05:18:28.791Z,20.63
2023-05-24T05:20:30.182Z,20.63
2023-05-24T05:22:31.569Z,20.62
2023-05-24T05:24:32.951Z,20.61
2023-05-24T05:26:35.617Z,20.62
2023-05-24T05:28:37.004Z,20.63
2023-05-24T05:30:38.414Z,20.62
2023-05-24T05:32:40.207Z,20.67
2023-05-24T05:34:41.731Z,20.70
2023-05-24T05:36:43.352Z,20.72
2023-05-24T05:38:44.784Z,20.75
2023-05-24T05:40:46.236Z,20.74
2023-05-24T05:42:47.697Z,20.74
2023-05-24T05:44:49.124Z,20.74
2023-05-24T05:46:50.453Z,20.80
2023-05-24T05:48:51.829Z,20.81
2023-05-24T05:50:53.157Z,20.83
2023-05-24T05:52:54.527Z,20.82
2023-05-24T05:54:55.857Z,20.82
2023-05-24T05:56:58.217Z,20.81
2023-05-24T05:59:00.887Z,20.81
2023-05-24T06:01:02.404Z,20.81
2023-05-24T06:03:03.819Z,20.80
2023-05-24T06:05:05.548Z,20.79
2023-05-24T06:07:06.882Z,20.78
2023-05-24T06:09:08.499Z,20.75
2023-05-24T06:11:09.829Z,20.75
2023-05-24T06:13:11.335Z,20.75
2023-05-24T06:15:13.608Z,20.76
2023-05-24T06:17:14.938Z,20.79
2023-05-24T06:19:16.869Z,20.80
2023-05-24T06:21:18.462Z,20.88
2023-05-24T06:23:19.840Z,20.90
2023-05-24T06:25:22.838Z,20.90
2023-05-24T06:27:24.242Z,20.91
2023-05-24T06:29:25.561Z,20.93
2023-05-24T06:31:27.010Z,20.94
2023-05-24T06:33:28.400Z,20.95
2023-05-24T06:35:29.775Z,20.96
2023-05-24T06:37:31.540Z,20.96
2023-05-24T06:39:32.883Z,20.98
2023-05-24T06:41:34.289Z,21.00
2023-05-24T06:43:35.700Z,21.00
2023-05-24T06:45:37.417Z,21.01
2023-05-24T06:47:38.889Z,21.02
2023-05-24T06:49:40.316Z,21.03
2023-05-24T06:51:41.960Z,21.00
2023-05-24T06:53:43.311Z,20.96
2023-05-24T06:55:44.687Z,20.97
2023-05-24T06:57:46.095Z,21.00
2023-05-24T06:59:47.615Z,20.95
2023-05-24T07:01:51.763Z,20.93
2023-05-24T07:03:53.312Z,20.91
2023-05-24T07:05:54.682Z,20.87
2023-05-24T07:07:56.087Z,20.87
2023-05-24T07:09:57.448Z,20.87
2023-05-24T07:11:58.829Z,20.93
2023-05-24T07:14:00.214Z,20.95
2023-05-24T07:16:02.116Z,20.92
2023-05-24T07:18:03.562Z,20.92
2023-05-24T07:20:09.908Z,20.88
2023-05-24T07:22:11.605Z,20.96
2023-05-24T07:24:15.390Z,21.03
2023-05-24T07:26:18.012Z,21.09
2023-05-24T07:28:20.255Z,21.09
2023-05-24T07:30:31.716Z,21.19
2023-05-24T07:32:34.319Z,21.12
2023-05-24T07:34:35.715Z,20.95
2023-05-24T07:36:37.140Z,20.95
2023-05-24T07:38:39.111Z,20.84
2023-05-24T07:40:40.722Z,20.77
2023-05-24T07:42:42.314Z,20.80
2023-05-24T07:44:43.729Z,20.78
2023-05-24T07:46:45.228Z,20.70
2023-05-24T07:48:46.637Z,20.62
2023-05-24T07:50:49.992Z,20.56
2023-05-24T07:52:51.451Z,20.53
2023-05-24T07:54:52.807Z,20.50
2023-05-24T07:56:54.240Z,20.48
2023-05-24T07:58:59.448Z,20.46
2023-05-24T08:01:00.802Z,20.46
2023-05-24T08:03:02.305Z,20.54
2023-05-24T08:05:05.149Z,20.53
2023-05-24T08:07:08.162Z,20.50
2023-05-24T08:09:12.409Z,20.45
2023-05-24T08:11:13.765Z,20.42
2023-05-24T08:13:15.087Z,20.38
2023-05-24T08:15:16.447Z,20.35
2023-05-24T08:17:17.815Z,20.34
2023-05-24T08:19:19.510Z,20.35
2023-05-24T08:21:21.376Z,20.33
2023-05-24T08:23:22.757Z,20.36
2023-05-24T08:25:24.119Z,20.34
2023-05-24T08:27:28.876Z,20.31
2023-05-24T08:29:30.438Z,20.30
2023-05-24T08:31:34.935Z,20.28
2023-05-24T08:33:36.687Z,20.25
2023-05-24T08:35:38.084Z,20.25
2023-05-24T08:37:39.506Z,20.23
2023-05-24T08:39:40.928Z,19.24
2023-05-24T08:41:42.291Z,18.55
2023-05-24T08:43:46.689Z,19.59
2023-05-24T08:45:48.091Z,20.49
2023-05-24T08:47:49.510Z,21.02
2023-05-24T08:49:50.924Z,21.36
2023-05-24T08:51:52.250Z,21.58
2023-05-24T08:53:54.515Z,21.46
2023-05-24T08:55:56.138Z,21.59
2023-05-24T08:57:57.481Z,21.65
2023-05-24T08:59:59.244Z,21.61
2023-05-24T09:02:00.712Z,21.70
2023-05-24T09:04:02.354Z,21.80
2023-05-24T09:06:03.725Z,21.63
2023-05-24T09:08:05.077Z,21.76
2023-05-24T09:10:06.775Z,21.80
2023-05-24T09:12:08.717Z,21.80
2023-05-24T09:14:13.052Z,21.72
2023-05-24T09:16:15.308Z,21.67
2023-05-24T09:18:16.809Z,21.65
2023-05-24T09:20:18.797Z,21.86
2023-05-24T09:22:23.298Z,21.39
2023-05-24T09:24:24.674Z,20.96
2023-05-24T09:26:26.211Z,20.79
2023-05-24T09:28:27.609Z,20.73
2023-05-24T09:30:28.959Z,20.76
2023-05-24T09:32:30.308Z,20.78
2023-05-24T09:34:31.694Z,20.85
2023-05-24T09:36:36.913Z,21.22
2023-05-24T09:38:38.279Z,21.89
2023-05-24T09:40:39.814Z,21.92
2023-05-24T09:42:41.274Z,22.01
2023-05-24T09:44:43.531Z,22.01
2023-05-24T09:46:45.900Z,22.00
2023-05-24T09:48:47.563Z,21.98
2023-05-24T09:50:49.315Z,22.09
2023-05-24T09:52:50.701Z,22.03
2023-05-24T09:54:52.335Z,21.67
2023-05-24T09:56:53.853Z,21.30
2023-05-24T09:58:55.199Z,21.08
2023-05-24T10:00:56.681Z,20.98
2023-05-24T10:02:58.096Z,20.89
2023-05-24T10:05:00.142Z,20.84
2023-05-24T10:07:02.453Z,20.81
2023-05-24T10:09:06.527Z,20.78
2023-05-24T10:11:09.606Z,20.76
2023-05-24T10:13:11.732Z,20.74
2023-05-24T10:15:13.132Z,20.73
2023-05-24T10:17:14.573Z,20.72
2023-05-24T10:19:16.994Z,20.71
2023-05-24T10:21:18.393Z,20.71
2023-05-24T10:23:19.724Z,20.73
2023-05-24T10:25:21.654Z,20.87
2023-05-24T10:27:23.054Z,20.98
2023-05-24T10:29:24.519Z,20.89
2023-05-24T10:31:26.881Z,20.74
2023-05-24T10:33:28.391Z,20.71
2023-05-24T10:35:29.860Z,20.72
2023-05-24T10:37:31.749Z,20.70
2023-05-24T10:39:33.086Z,20.68
2023-05-24T10:41:34.523Z,20.67
2023-05-24T10:43:36.572Z,20.65
2023-05-24T10:45:38.100Z,20.64
2023-05-24T10:47:39.569Z,20.64
2023-05-24T10:49:40.962Z,20.62
2023-05-24T10:51:42.289Z,20.61
2023-05-24T10:53:43.653Z,20.61
2023-05-24T10:55:44.975Z,20.60
2023-05-24T10:57:46.302Z,20.61
2023-05-24T10:59:47.623Z,20.59
2023-05-24T11:01:49.035Z,20.60
2023-05-24T11:03:50.391Z,20.58
2023-05-24T11:05:52.987Z,20.56
2023-05-24T11:07:54.589Z,20.56
2023-05-24T11:09:58.141Z,20.53
2023-05-24T11:11:59.465Z,20.52
2023-05-24T11:14:02.246Z,20.50
2023-05-24T11:16:03.643Z,20.46
2023-05-24T11:18:05.064Z,20.44
2023-05-24T11:20:06.433Z,20.41
2023-05-24T11:22:07.870Z,20.40
2023-05-24T11:24:09.711Z,20.38
2023-05-24T11:26:11.164Z,20.38
2023-05-24T11:28:12.617Z,20.37
2023-05-24T11:30:14.022Z,20.35
2023-05-24T11:32:15.652Z,20.34
2023-05-24T11:34:17.821Z,20.33
2023-05-24T11:36:19.957Z,20.31
2023-05-24T11:38:24.126Z,20.31
2023-05-24T11:40:26.317Z,20.28
2023-05-24T11:42:27.640Z,20.26
2023-05-24T11:44:29.051Z,20.25
2023-05-24T11:46:30.943Z,20.23
2023-05-24T11:48:32.535Z,20.22
2023-05-24T11:50:45.643Z,20.20
2023-05-24T11:52:50.382Z,20.19
2023-05-24T11:54:51.836Z,20.18
2023-05-24T11:56:53.267Z,20.14
2023-05-24T11:58:54.659Z,20.13
2023-05-24T12:00:58.804Z,20.11
2023-05-24T12:03:05.190Z,20.12
2023-05-24T12:05:06.760Z,20.11
2023-05-24T12:07:08.124Z,20.11
2023-05-24T12:09:11.028Z,20.11
2023-05-24T12:11:12.491Z,20.10
2023-05-24T12:13:13.816Z,20.11
2023-05-24T12:15:15.240Z,20.10
2023-05-24T12:17:17.240Z,20.08
2023-05-24T12:19:31.441Z,20.06
2023-05-24T12:21:35.272Z,20.04
2023-05-24T12:23:37.307Z,20.02
2023-05-24T12:25:38.672Z,20.01
2023-05-24T12:27:44.083Z,19.98
2023-05-24T12:29:45.625Z,19.98
2023-05-24T12:31:47.091Z,19.98
2023-05-24T12:33:48.730Z,19.97
2023-05-24T12:35:50.126Z,19.95
2023-05-24T12:37:51.457Z,19.96
2023-05-24T12:39:54.640Z,19.96
2023-05-24T12:41:56.251Z,19.97
2023-05-24T12:43:57.587Z,19.97
2023-05-24T12:46:00.151Z,19.97
2023-05-24T12:48:03.038Z,20.02
2023-05-24T12:50:04.547Z,19.99
2023-05-24T12:52:06.717Z,19.74
2023-05-24T12:54:08.456Z,19.88
2023-05-24T12:56:09.782Z,19.93
2023-05-24T12:58:14.649Z,20.01
2023-05-24T13:00:16.919Z,20.16
2023-05-24T13:02:18.250Z,20.27
2023-05-24T13:04:20.899Z,20.34
2023-05-24T13:06:22.376Z,20.38
2023-05-24T13:08:23.720Z,20.40
2023-05-24T13:10:25.109Z,20.42
2023-05-24T13:12:28.950Z,20.44
2023-05-24T13:14:30.347Z,20.44
2023-05-24T13:16:31.826Z,20.45
2023-05-24T13:18:33.190Z,20.43
2023-05-24T13:20:34.623Z,20.46
2023-05-24T13:22:37.282Z,20.56
2023-05-24T13:24:38.609Z,20.64
2023-05-24T13:26:39.994Z,20.61
2023-05-24T13:28:58.673Z,20.58
2023-05-24T13:31:03.902Z,20.59
2023-05-24T13:33:05.376Z,20.63
2023-05-24T13:35:09.869Z,20.66
2023-05-24T13:37:11.283Z,20.67
2023-05-24T13:39:16.134Z,20.65
2023-05-24T13:41:17.996Z,20.72
2023-05-24T13:43:19.381Z,20.71
2023-05-24T13:45:21.515Z,20.64
2023-05-24T13:47:35.319Z,20.66
2023-05-24T13:49:41.216Z,20.80
2023-05-24T13:51:42.564Z,20.68
2023-05-24T13:53:43.984Z,20.55
2023-05-24T13:55:45.465Z,20.44
2023-05-24T13:57:51.186Z,20.37
2023-05-24T13:59:53.301Z,20.32
2023-05-24T14:01:54.738Z,20.28
2023-05-24T14:03:56.128Z,20.58
2023-05-24T14:05:57.486Z,21.15
2023-05-24T14:08:04.098Z,21.50
2023-05-24T14:10:05.461Z,21.52
2023-05-24T14:12:07.874Z,22.06
2023-05-24T14:16:13.543Z,22.10
2023-05-24T14:18:14.914Z,21.94
2023-05-24T14:20:16.479Z,22.15
2023-05-24T14:22:17.976Z,22.28
2023-05-24T14:24:19.386Z,21.05
2023-05-24T14:26:23.545Z,21.88
2023-05-24T14:28:25.326Z,22.17
2023-05-24T14:30:26.698Z,22.18
2023-05-24T14:32:30.976Z,21.94
2023-05-24T14:34:32.373Z,21.93
2023-05-24T14:36:33.764Z,21.80
2023-05-24T14:38:35.172Z,22.03
2023-05-24T14:40:37.740Z,22.37
2023-05-24T14:42:39.134Z,22.23
2023-05-24T14:44:40.510Z,22.38
2023-05-24T14:46:41.918Z,22.40
2023-05-24T14:48:43.328Z,22.01
2023-05-24T14:50:44.708Z,21.63
2023-05-24T14:52:46.069Z,21.25
2023-05-24T14:54:47.453Z,21.07
2023-05-24T14:56:48.840Z,20.95
2023-05-24T14:58:50.181Z,20.90
2023-05-24T15:00:51.552Z,20.83
2023-05-24T15:02:53.187Z,20.84
2023-05-24T15:04:54.641Z,20.81
2023-05-24T15:06:55.978Z,20.73
2023-05-24T15:08:57.308Z,20.70
2023-05-24T15:10:59.161Z,20.68
2023-05-24T15:13:01.456Z,20.68
2023-05-24T15:15:03.009Z,20.65
2023-05-24T15:17:04.405Z,20.64
2023-05-24T15:19:05.891Z,20.67
2023-05-24T15:21:07.232Z,20.66
2023-05-24T15:23:10.690Z,20.66
2023-05-24T15:25:12.189Z,20.65
2023-05-24T15:27:13.520Z,20.66
2023-05-24T15:29:17.814Z,20.66
2023-05-24T15:31:19.502Z,20.61
2023-05-24T15:33:21.077Z,20.59
2023-05-24T15:35:23.048Z,20.57
2023-05-24T15:37:24.367Z,20.55
2023-05-24T15:39:37.845Z,20.54
2023-05-24T15:41:39.324Z,20.53
2023-05-24T15:43:40.703Z,20.54
2023-05-24T15:45:42.035Z,20.54
2023-05-24T15:47:43.500Z,20.51
2023-05-24T15:49:45.446Z,20.49
2023-05-24T15:52:03.496Z,20.49
2023-05-24T15:54:06.084Z,20.47
2023-05-24T15:56:07.433Z,20.46
2023-05-24T15:58:08.798Z,20.42
2023-05-24T16:00:10.542Z,20.40
2023-05-24T16:02:11.946Z,20.38
2023-05-24T16:04:13.569Z,20.35
2023-05-24T16:06:14.990Z,20.34
2023-05-24T16:08:17.008Z,20.33
2023-05-24T16:10:18.342Z,20.30
2023-05-24T16:12:19.708Z,20.28
2023-05-24T16:14:21.172Z,20.25
2023-05-24T16:16:23.663Z,20.23
2023-05-24T16:18:27.026Z,20.20
2023-05-24T16:20:31.080Z,20.19
2023-05-24T16:22:32.444Z,20.16
2023-05-24T16:24:33.807Z,20.15
2023-05-24T16:26:35.285Z,20.12
2023-05-24T16:28:36.796Z,20.11
2023-05-24T16:30:38.196Z,20.10
2023-05-24T16:32:40.036Z,20.09
2023-05-24T16:34:56.254Z,20.08
2023-05-24T16:36:58.722Z,20.06
2023-05-24T16:39:03.124Z,20.04
2023-05-24T16:41:08.630Z,20.02
2023-05-24T16:43:09.994Z,20.00
2023-05-24T16:45:14.113Z,19.99
2023-05-24T16:47:15.464Z,19.98
2023-05-24T16:49:16.932Z,19.96
2023-05-24T16:51:18.290Z,19.90
2023-05-24T16:53:22.861Z,19.87
2023-05-24T16:55:27.057Z,19.84
2023-05-24T16:57:31.056Z,19.80
2023-05-24T16:59:32.680Z,19.80
2023-05-24T17:01:34.035Z,19.78
2023-05-24T17:03:35.711Z,19.78
2023-05-24T17:05:37.264Z,19.76
2023-05-24T17:07:39.408Z,19.76
2023-05-24T17:09:40.945Z,19.74
2023-05-24T17:11:43.183Z,19.74
2023-05-24T17:13:45.780Z,19.73
2023-05-24T17:15:47.151Z,19.72
2023-05-24T17:17:51.503Z,19.67
2023-05-24T17:19:53.177Z,19.67
2023-05-24T17:21:54.653Z,19.66
2023-05-24T17:23:56.672Z,19.65
2023-05-24T17:25:58.092Z,19.63
2023-05-24T17:27:59.433Z,19.61
2023-05-24T17:30:00.802Z,19.59
2023-05-24T17:32:02.268Z,19.59
2023-05-24T17:34:06.949Z,19.57
2023-05-24T17:36:09.590Z,19.56
2023-05-24T17:38:11.019Z,19.56
2023-05-24T17:40:12.412Z,19.54
2023-05-24T17:42:13.801Z,19.53
2023-05-24T17:44:15.193Z,19.53
2023-05-24T17:46:19.477Z,19.51
2023-05-24T17:48:20.858Z,19.51
2023-05-24T17:50:22.262Z,19.51
2023-05-24T17:52:23.583Z,19.50
2023-05-24T17:54:24.947Z,19.48
2023-05-24T17:56:26.286Z,19.48
2023-05-24T17:58:28.569Z,19.47
2023-05-24T18:00:29.888Z,19.45
2023-05-24T18:02:31.325Z,19.44
2023-05-24T18:04:38.749Z,19.43
2023-05-24T18:06:42.877Z,19.42
2023-05-24T18:08:44.297Z,19.41
2023-05-24T18:10:45.914Z,19.41
2023-05-24T18:12:47.886Z,19.39
2023-05-24T18:14:49.259Z,19.41
2023-05-24T18:16:50.681Z,19.58
2023-05-24T18:18:56.255Z,19.96
2023-05-24T18:20:57.575Z,20.10
2023-05-24T18:22:58.954Z,20.30
2023-05-24T18:25:00.367Z,20.41
2023-05-24T18:27:02.624Z,20.45
2023-05-24T18:29:03.956Z,20.51
2023-05-24T18:31:08.291Z,20.61
2023-05-24T18:33:09.847Z,20.64
2023-05-24T18:35:11.299Z,20.65
2023-05-24T18:37:15.734Z,20.83
2023-05-24T18:39:17.172Z,20.82
2023-05-24T18:41:18.505Z,20.84
2023-05-24T18:43:19.833Z,20.94
2023-05-24T18:45:24.293Z,20.90
2023-05-24T18:47:26.041Z,20.90
2023-05-24T18:49:27.387Z,20.98
2023-05-24T18:51:28.801Z,20.95
2023-05-24T18:53:30.131Z,20.93
2023-05-24T18:55:31.462Z,20.82
2023-05-24T18:57:33.768Z,20.54
2023-05-24T18:59:38.746Z,20.27
2023-05-24T19:01:40.126Z,20.18
2023-05-24T19:03:41.802Z,20.11
2023-05-24T19:05:44.181Z,20.54
2023-05-24T19:07:45.910Z,20.91
2023-05-24T19:09:53.239Z,21.13
2023-05-24T19:11:56.316Z,20.82
2023-05-24T19:13:57.711Z,20.48
2023-05-24T19:16:07.081Z,20.29
2023-05-24T19:18:14.498Z,20.47
2023-05-24T19:20:19.221Z,20.91
2023-05-24T19:22:23.548Z,21.21
2023-05-24T19:24:25.991Z,21.35
2023-05-24T19:26:27.506Z,21.41
2023-05-24T19:28:28.911Z,21.32
2023-05-24T19:30:30.238Z,20.80
2023-05-24T19:32:31.772Z,20.50
2023-05-24T19:34:38.176Z,20.49
2023-05-24T19:36:42.699Z,20.37
2023-05-24T19:38:47.016Z,20.25
2023-05-24T19:40:51.185Z,20.19
2023-05-24T19:42:52.600Z,20.16
2023-05-24T19:44:54.124Z,20.35
2023-05-24T19:46:55.558Z,20.70
2023-05-24T19:48:59.932Z,20.66
2023-05-24T19:51:02.360Z,20.42
2023-05-24T19:53:03.721Z,20.28
2023-05-24T19:55:05.594Z,20.19
2023-05-24T19:57:06.914Z,20.15
2023-05-24T19:59:10.936Z,20.14
2023-05-24T20:01:18.354Z,20.12
2023-05-24T20:03:19.932Z,20.09
2023-05-24T20:05:21.452Z,20.10
2023-05-24T20:07:22.841Z,20.06
2023-05-24T20:09:24.231Z,20.07
2023-05-24T20:11:25.840Z,20.07
2023-05-24T20:13:27.175Z,20.06
2023-05-24T20:15:28.563Z,20.05
2023-05-24T20:17:30.018Z,20.05
2023-05-24T20:19:31.416Z,20.03
2023-05-24T20:21:32.847Z,20.12
2023-05-24T20:23:34.183Z,20.24
2023-05-24T20:25:35.594Z,20.15
2023-05-24T20:27:37.021Z,20.27
2023-05-24T20:29:38.414Z,20.95
2023-05-24T20:31:39.833Z,20.94
2023-05-24T20:33:41.215Z,21.45
2023-05-24T20:35:42.912Z,21.27
2023-05-24T20:37:44.520Z,21.16
2023-05-24T20:39:45.926Z,21.11
2023-05-24T20:41:47.252Z,21.14
2023-05-24T20:43:49.343Z,21.11
2023-05-24T20:45:50.698Z,21.14
2023-05-24T20:47:52.150Z,21.15
2023-05-24T20:49:53.556Z,21.33
2023-05-24T20:51:54.932Z,21.37
2023-05-24T20:53:56.396Z,21.42
2023-05-24T20:55:57.790Z,21.39
2023-05-24T20:57:59.144Z,21.34
2023-05-24T21:00:00.479Z,21.41
2023-05-24T21:02:02.405Z,21.43
2023-05-24T21:04:03.898Z,21.46
2023-05-24T21:06:05.452Z,21.44
2023-05-24T21:08:06.907Z,21.46
2023-05-24T21:10:08.549Z,21.62
2023-05-24T21:12:09.933Z,21.51
2023-05-24T21:14:11.298Z,21.48
2023-05-24T21:16:12.618Z,21.54
2023-05-24T21:18:14.024Z,21.55
2023-05-24T21:20:15.606Z,21.51
2023-05-24T21:22:16.944Z,21.36
2023-05-24T21:24:18.345Z,20.93
2023-05-24T21:26:26.577Z,21.08
2023-05-24T21:28:27.920Z,21.35
2023-05-24T21:30:29.295Z,21.45
2023-05-24T21:32:30.672Z,21.47
2023-05-24T21:34:32.151Z,21.44
2023-05-24T21:36:33.575Z,21.46
2023-05-24T21:38:34.909Z,21.52
2023-05-24T21:40:36.288Z,21.55
2023-05-24T21:42:37.666Z,21.58
2023-05-24T21:44:38.998Z,21.67
2023-05-24T21:46:40.458Z,21.54
2023-05-24T21:48:41.882Z,21.54
2023-05-24T21:50:43.271Z,21.51
2023-05-24T21:52:44.652Z,21.59
2023-05-24T21:54:46.060Z,21.65
2023-05-24T21:56:47.387Z,21.60
2023-05-24T21:58:48.724Z,21.57
2023-05-24T22:00:51.706Z,21.60
2023-05-24T22:02:53.187Z,21.63
2023-05-24T22:04:54.827Z,21.61
2023-05-24T22:06:56.144Z,21.62
2023-05-24T22:09:02.261Z,21.58
2023-05-24T22:11:03.632Z,21.53
2023-05-24T22:13:05.013Z,21.54
2023-05-24T22:15:06.599Z,21.54
2023-05-24T22:17:07.929Z,21.52
2023-05-24T22:19:09.377Z,21.53
2023-05-24T22:21:10.717Z,21.67
2023-05-24T22:23:12.347Z,21.64
2023-05-24T22:25:17.360Z,20.52
2023-05-24T22:27:18.829Z,18.21
2023-05-24T22:29:20.213Z,17.74
2023-05-24T22:31:21.729Z,19.06
2023-05-24T22:33:23.308Z,19.65
2023-05-24T22:35:24.656Z,19.84
2023-05-24T22:37:26.063Z,17.60
2023-05-24T22:39:27.437Z,19.95
2023-05-24T22:41:28.955Z,19.95
2023-05-24T22:43:30.280Z,19.93
2023-05-24T22:45:31.599Z,19.93
2023-05-24T22:47:36.519Z,19.92
2023-05-24T22:49:37.966Z,19.91
2023-05-24T22:51:44.053Z,19.92
2023-05-24T22:53:45.512Z,19.87
2023-05-24T22:55:46.835Z,19.89
2023-05-24T22:57:48.193Z,19.86
2023-05-24T22:59:49.572Z,19.84
2023-05-24T23:01:51.008Z,19.85
2023-05-24T23:03:52.506Z,19.83
2023-05-24T23:05:53.871Z,19.81
2023-05-24T23:07:55.248Z,19.82
2023-05-24T23:09:56.901Z,19.84
2023-05-24T23:11:58.969Z,19.81
2023-05-24T23:14:00.363Z,19.82
2023-05-24T23:16:02.229Z,19.82
2023-05-24T23:18:05.725Z,19.80
2023-05-24T23:20:10.137Z,19.81
2023-05-24T23:22:12.078Z,19.84
2023-05-24T23:24:15.893Z,19.84
2023-05-24T23:26:17.435Z,19.83
2023-05-24T23:28:18.770Z,19.80
2023-05-24T23:30:20.110Z,19.79
2023-05-24T23:32:21.508Z,19.82
2023-05-24T23:34:22.857Z,19.89
2023-05-24T23:36:24.197Z,19.90
2023-05-24T23:38:25.626Z,19.90
2023-05-24T23:40:29.887Z,19.88
2023-05-24T23:42:31.320Z,19.88
2023-05-24T23:44:32.686Z,19.88
2023-05-24T23:46:34.192Z,19.87
2023-05-24T23:48:35.585Z,19.85
2023-05-24T23:50:50.148Z,19.86
2023-05-24T23:52:51.820Z,19.86
2023-05-24T23:54:53.190Z,19.86
2023-05-24T23:56:54.583Z,19.85
2023-05-24T23:58:55.937Z,19.85
